sensor_id;sensor_type;location;lat;lon;timestamp;P1;durP1;ratioP1;P2;durP2;ratioP2
12407;SDS011;6268;48.188;17.134;2023-02-03T00:00:18;3.90;;;2.37;;
12407;SDS011;6268;48.188;17.134;2023-02-03T00:02:47;3.93;;;2.80;;
12407;SDS011;6268;48.188;17.134;2023-02-03T00:05:16;3.70;;;2.77;;
12407;SDS011;6268;48.188;17.134;2023-02-03T00:07:44;4.53;;;2.60;;
12407;SDS011;6268;48.188;17.134;2023-02-03T00:10:13;3.10;;;2.70;;
12407;SDS011;6268;48.188;17.134;2023-02-03T00:12:46;4.93;;;2.53;;
12407;SDS011;6268;48.188;17.134;2023-02-03T00:15:18;4.07;;;3.10;;
12407;SDS011;6268;48.188;17.134;2023-02-03T00:17:48;5.63;;;2.70;;
12407;SDS011;6268;48.188;17.134;2023-02-03T00:20:18;5.37;;;3.87;;
12407;SDS011;6268;48.188;17.134;2023-02-03T00:22:47;3.73;;;2.87;;
12407;SDS011;6268;48.188;17.134;2023-02-03T00:25:16;3.87;;;2.40;;
12407;SDS011;6268;48.188;17.134;2023-02-03T00:27:47;2.90;;;2.70;;
12407;SDS011;6268;48.188;17.134;2023-02-03T00:30:17;3.47;;;2.67;;
12407;SDS011;6268;48.188;17.134;2023-02-03T00:32:46;2.53;;;2.33;;
12407;SDS011;6268;48.188;17.134;2023-02-03T00:35:15;2.50;;;2.30;;
12407;SDS011;6268;48.188;17.134;2023-02-03T00:37:49;4.40;;;2.47;;
12407;SDS011;6268;48.188;17.134;2023-02-03T00:40:19;3.43;;;2.73;;
12407;SDS011;6268;48.188;17.134;2023-02-03T00:42:51;2.80;;;2.60;;
12407;SDS011;6268;48.188;17.134;2023-02-03T00:45:21;4.87;;;2.80;;
12407;SDS011;6268;48.188;17.134;2023-02-03T00:47:50;3.73;;;2.87;;
12407;SDS011;6268;48.188;17.134;2023-02-03T00:50:19;3.73;;;2.80;;
12407;SDS011;6268;48.188;17.134;2023-02-03T00:52:47;3.77;;;2.90;;
12407;SDS011;6268;48.188;17.134;2023-02-03T00:55:16;3.93;;;2.57;;
12407;SDS011;6268;48.188;17.134;2023-02-03T00:57:45;4.40;;;2.53;;
12407;SDS011;6268;48.188;17.134;2023-02-03T01:02:46;6.13;;;3.43;;
12407;SDS011;6268;48.188;17.134;2023-02-03T01:05:15;3.10;;;2.70;;
12407;SDS011;6268;48.188;17.134;2023-02-03T01:07:44;6.30;;;2.83;;
12407;SDS011;6268;48.188;17.134;2023-02-03T01:10:13;4.63;;;2.63;;
12407;SDS011;6268;48.188;17.134;2023-02-03T01:12:42;3.97;;;2.70;;
12407;SDS011;6268;48.188;17.134;2023-02-03T01:15:11;4.40;;;3.30;;
12407;SDS011;6268;48.188;17.134;2023-02-03T01:17:41;3.10;;;2.20;;
12407;SDS011;6268;48.188;17.134;2023-02-03T01:20:10;4.13;;;2.90;;
12407;SDS011;6268;48.188;17.134;2023-02-03T01:22:41;3.30;;;2.60;;
12407;SDS011;6268;48.188;17.134;2023-02-03T01:25:10;5.17;;;3.97;;
12407;SDS011;6268;48.188;17.134;2023-02-03T01:27:39;3.10;;;2.80;;
12407;SDS011;6268;48.188;17.134;2023-02-03T01:30:09;2.97;;;2.47;;
12407;SDS011;6268;48.188;17.134;2023-02-03T01:32:39;4.30;;;2.40;;
12407;SDS011;6268;48.188;17.134;2023-02-03T01:35:09;3.07;;;2.17;;
12407;SDS011;6268;48.188;17.134;2023-02-03T01:37:37;2.60;;;2.40;;
12407;SDS011;6268;48.188;17.134;2023-02-03T01:40:07;3.17;;;2.63;;
12407;SDS011;6268;48.188;17.134;2023-02-03T01:42:37;7.13;;;2.93;;
12407;SDS011;6268;48.188;17.134;2023-02-03T01:45:06;7.13;;;2.90;;
12407;SDS011;6268;48.188;17.134;2023-02-03T01:47:40;2.40;;;2.20;;
12407;SDS011;6268;48.188;17.134;2023-02-03T01:50:15;2.57;;;2.20;;
12407;SDS011;6268;48.188;17.134;2023-02-03T01:52:48;3.13;;;2.50;;
12407;SDS011;6268;48.188;17.134;2023-02-03T01:55:24;4.57;;;2.60;;
12407;SDS011;6268;48.188;17.134;2023-02-03T01:57:59;3.73;;;2.70;;
12407;SDS011;6268;48.188;17.134;2023-02-03T02:00:33;3.67;;;2.63;;
12407;SDS011;6268;48.188;17.134;2023-02-03T02:03:02;3.60;;;2.53;;
12407;SDS011;6268;48.188;17.134;2023-02-03T02:05:35;3.53;;;2.40;;
12407;SDS011;6268;48.188;17.134;2023-02-03T02:08:13;2.97;;;2.33;;
12407;SDS011;6268;48.188;17.134;2023-02-03T02:10:44;2.53;;;2.23;;
12407;SDS011;6268;48.188;17.134;2023-02-03T02:13:14;3.03;;;2.50;;
12407;SDS011;6268;48.188;17.134;2023-02-03T02:15:46;2.87;;;2.40;;
12407;SDS011;6268;48.188;17.134;2023-02-03T02:18:30;3.13;;;2.77;;
12407;SDS011;6268;48.188;17.134;2023-02-03T02:21:23;3.73;;;2.40;;
12407;SDS011;6268;48.188;17.134;2023-02-03T02:24:31;3.63;;;2.33;;
12407;SDS011;6268;48.188;17.134;2023-02-03T02:27:48;4.00;;;2.40;;
12407;SDS011;6268;48.188;17.134;2023-02-03T02:30:57;3.10;;;2.27;;
12407;SDS011;6268;48.188;17.134;2023-02-03T02:34:10;2.60;;;2.00;;
12407;SDS011;6268;48.188;17.134;2023-02-03T02:36:51;2.30;;;2.10;;
12407;SDS011;6268;48.188;17.134;2023-02-03T02:39:35;2.67;;;2.20;;
12407;SDS011;6268;48.188;17.134;2023-02-03T02:42:13;2.90;;;2.13;;
12407;SDS011;6268;48.188;17.134;2023-02-03T02:44:49;2.37;;;2.17;;
12407;SDS011;6268;48.188;17.134;2023-02-03T02:47:25;4.10;;;2.37;;
12407;SDS011;6268;48.188;17.134;2023-02-03T02:49:56;3.50;;;2.43;;
12407;SDS011;6268;48.188;17.134;2023-02-03T02:52:33;3.30;;;2.13;;
12407;SDS011;6268;48.188;17.134;2023-02-03T02:55:09;5.00;;;2.40;;
12407;SDS011;6268;48.188;17.134;2023-02-03T02:57:43;2.97;;;2.67;;
12407;SDS011;6268;48.188;17.134;2023-02-03T03:00:14;2.87;;;2.60;;
12407;SDS011;6268;48.188;17.134;2023-02-03T03:02:43;2.60;;;2.40;;
12407;SDS011;6268;48.188;17.134;2023-02-03T03:05:13;3.67;;;2.67;;
12407;SDS011;6268;48.188;17.134;2023-02-03T03:07:47;3.63;;;2.90;;
12407;SDS011;6268;48.188;17.134;2023-02-03T03:10:22;4.60;;;3.70;;
12407;SDS011;6268;48.188;17.134;2023-02-03T03:12:58;5.50;;;4.07;;
12407;SDS011;6268;48.188;17.134;2023-02-03T03:15:33;4.77;;;4.23;;
12407;SDS011;6268;48.188;17.134;2023-02-03T03:18:04;6.00;;;4.77;;
12407;SDS011;6268;48.188;17.134;2023-02-03T03:20:42;4.83;;;4.30;;
12407;SDS011;6268;48.188;17.134;2023-02-03T03:23:18;4.97;;;4.43;;
12407;SDS011;6268;48.188;17.134;2023-02-03T03:25:53;4.40;;;4.00;;
12407;SDS011;6268;48.188;17.134;2023-02-03T03:28:32;4.53;;;4.17;;
12407;SDS011;6268;48.188;17.134;2023-02-03T03:31:09;4.50;;;4.10;;
12407;SDS011;6268;48.188;17.134;2023-02-03T03:33:38;5.33;;;4.87;;
12407;SDS011;6268;48.188;17.134;2023-02-03T03:36:11;8.07;;;4.70;;
12407;SDS011;6268;48.188;17.134;2023-02-03T03:38:52;5.53;;;5.03;;
12407;SDS011;6268;48.188;17.134;2023-02-03T03:41:33;5.53;;;5.03;;
12407;SDS011;6268;48.188;17.134;2023-02-03T03:44:10;5.93;;;5.43;;
12407;SDS011;6268;48.188;17.134;2023-02-03T03:46:44;6.23;;;5.67;;
12407;SDS011;6268;48.188;17.134;2023-02-03T03:49:22;6.23;;;5.63;;
12407;SDS011;6268;48.188;17.134;2023-02-03T03:51:56;6.40;;;5.83;;
12407;SDS011;6268;48.188;17.134;2023-02-03T03:54:31;6.13;;;5.47;;
12407;SDS011;6268;48.188;17.134;2023-02-03T03:57:04;6.13;;;5.70;;
12407;SDS011;6268;48.188;17.134;2023-02-03T03:59:43;7.40;;;6.00;;
12407;SDS011;6268;48.188;17.134;2023-02-03T04:02:16;6.53;;;5.93;;
12407;SDS011;6268;48.188;17.134;2023-02-03T04:04:47;6.60;;;6.10;;
12407;SDS011;6268;48.188;17.134;2023-02-03T04:07:20;6.27;;;5.70;;
12407;SDS011;6268;48.188;17.134;2023-02-03T04:09:48;7.40;;;6.67;;
12407;SDS011;6268;48.188;17.134;2023-02-03T04:12:20;7.17;;;6.57;;
12407;SDS011;6268;48.188;17.134;2023-02-03T04:14:51;7.33;;;6.63;;
12407;SDS011;6268;48.188;17.134;2023-02-03T04:17:20;7.03;;;6.43;;
12407;SDS011;6268;48.188;17.134;2023-02-03T04:19:48;8.20;;;7.47;;
12407;SDS011;6268;48.188;17.134;2023-02-03T04:22:17;8.00;;;7.20;;
12407;SDS011;6268;48.188;17.134;2023-02-03T04:24:47;9.33;;;7.23;;
12407;SDS011;6268;48.188;17.134;2023-02-03T04:27:16;8.60;;;7.63;;
12407;SDS011;6268;48.188;17.134;2023-02-03T04:29:45;9.70;;;8.67;;
12407;SDS011;6268;48.188;17.134;2023-02-03T04:32:16;9.27;;;8.00;;
12407;SDS011;6268;48.188;17.134;2023-02-03T04:34:45;7.77;;;7.00;;
12407;SDS011;6268;48.188;17.134;2023-02-03T04:37:14;8.50;;;7.70;;
12407;SDS011;6268;48.188;17.134;2023-02-03T04:39:45;7.33;;;6.73;;
12407;SDS011;6268;48.188;17.134;2023-02-03T04:42:13;8.10;;;7.40;;
12407;SDS011;6268;48.188;17.134;2023-02-03T04:44:42;7.40;;;6.80;;
12407;SDS011;6268;48.188;17.134;2023-02-03T04:47:11;6.97;;;6.37;;
12407;SDS011;6268;48.188;17.134;2023-02-03T04:49:40;7.70;;;7.07;;
12407;SDS011;6268;48.188;17.134;2023-02-03T04:52:10;6.93;;;6.33;;
12407;SDS011;6268;48.188;17.134;2023-02-03T04:54:39;7.50;;;6.80;;
12407;SDS011;6268;48.188;17.134;2023-02-03T04:57:10;7.10;;;6.47;;
12407;SDS011;6268;48.188;17.134;2023-02-03T04:59:39;7.23;;;6.63;;
12407;SDS011;6268;48.188;17.134;2023-02-03T05:02:08;7.23;;;6.50;;
12407;SDS011;6268;48.188;17.134;2023-02-03T05:04:37;6.77;;;6.23;;
12407;SDS011;6268;48.188;17.134;2023-02-03T05:07:06;6.33;;;5.87;;
12407;SDS011;6268;48.188;17.134;2023-02-03T05:09:34;6.83;;;6.17;;
12407;SDS011;6268;48.188;17.134;2023-02-03T05:12:03;6.10;;;5.60;;
12407;SDS011;6268;48.188;17.134;2023-02-03T05:14:34;5.37;;;4.90;;
12407;SDS011;6268;48.188;17.134;2023-02-03T05:17:03;6.37;;;5.87;;
12407;SDS011;6268;48.188;17.134;2023-02-03T05:19:32;7.07;;;6.47;;
12407;SDS011;6268;48.188;17.134;2023-02-03T05:22:00;6.03;;;5.63;;
12407;SDS011;6268;48.188;17.134;2023-02-03T05:24:29;5.93;;;5.43;;
12407;SDS011;6268;48.188;17.134;2023-02-03T05:26:58;5.37;;;4.97;;
12407;SDS011;6268;48.188;17.134;2023-02-03T05:29:27;5.03;;;4.63;;
12407;SDS011;6268;48.188;17.134;2023-02-03T05:31:57;4.70;;;4.30;;
12407;SDS011;6268;48.188;17.134;2023-02-03T05:34:26;4.83;;;4.43;;
12407;SDS011;6268;48.188;17.134;2023-02-03T05:36:55;4.73;;;4.43;;
12407;SDS011;6268;48.188;17.134;2023-02-03T05:39:24;5.80;;;5.30;;
12407;SDS011;6268;48.188;17.134;2023-02-03T05:41:52;6.40;;;5.80;;
12407;SDS011;6268;48.188;17.134;2023-02-03T05:44:25;6.27;;;5.77;;
12407;SDS011;6268;48.188;17.134;2023-02-03T05:46:57;9.57;;;8.57;;
12407;SDS011;6268;48.188;17.134;2023-02-03T05:49:26;22.70;;;17.63;;
12407;SDS011;6268;48.188;17.134;2023-02-03T05:51:55;6.37;;;5.87;;
12407;SDS011;6268;48.188;17.134;2023-02-03T05:54:24;10.10;;;9.10;;
12407;SDS011;6268;48.188;17.134;2023-02-03T05:56:53;8.87;;;6.97;;
12407;SDS011;6268;48.188;17.134;2023-02-03T05:59:22;7.07;;;6.50;;
12407;SDS011;6268;48.188;17.134;2023-02-03T06:01:51;6.53;;;5.93;;
12407;SDS011;6268;48.188;17.134;2023-02-03T06:04:21;6.90;;;5.93;;
12407;SDS011;6268;48.188;17.134;2023-02-03T06:06:50;7.17;;;6.57;;
12407;SDS011;6268;48.188;17.134;2023-02-03T06:09:19;7.87;;;7.10;;
12407;SDS011;6268;48.188;17.134;2023-02-03T06:11:47;8.60;;;7.60;;
12407;SDS011;6268;48.188;17.134;2023-02-03T06:14:16;7.53;;;6.80;;
12407;SDS011;6268;48.188;17.134;2023-02-03T06:16:45;7.77;;;6.93;;
12407;SDS011;6268;48.188;17.134;2023-02-03T06:19:14;8.30;;;6.57;;
12407;SDS011;6268;48.188;17.134;2023-02-03T06:21:44;8.03;;;6.23;;
12407;SDS011;6268;48.188;17.134;2023-02-03T06:24:13;9.13;;;6.97;;
12407;SDS011;6268;48.188;17.134;2023-02-03T06:26:42;10.47;;;7.33;;
12407;SDS011;6268;48.188;17.134;2023-02-03T06:29:11;7.93;;;7.13;;
12407;SDS011;6268;48.188;17.134;2023-02-03T06:31:40;7.90;;;7.20;;
12407;SDS011;6268;48.188;17.134;2023-02-03T06:34:09;7.37;;;6.50;;
12407;SDS011;6268;48.188;17.134;2023-02-03T06:36:38;5.93;;;5.53;;
12407;SDS011;6268;48.188;17.134;2023-02-03T06:39:08;6.57;;;6.03;;
12407;SDS011;6268;48.188;17.134;2023-02-03T06:41:37;4.40;;;4.00;;
12407;SDS011;6268;48.188;17.134;2023-02-03T06:44:05;4.67;;;4.33;;
12407;SDS011;6268;48.188;17.134;2023-02-03T06:46:35;4.30;;;3.90;;
12407;SDS011;6268;48.188;17.134;2023-02-03T06:49:04;3.57;;;3.33;;
12407;SDS011;6268;48.188;17.134;2023-02-03T06:51:32;2.70;;;2.50;;
12407;SDS011;6268;48.188;17.134;2023-02-03T06:54:01;1.63;;;1.53;;
12407;SDS011;6268;48.188;17.134;2023-02-03T06:56:32;1.30;;;1.20;;
12407;SDS011;6268;48.188;17.134;2023-02-03T06:59:01;0.97;;;0.97;;
12407;SDS011;6268;48.188;17.134;2023-02-03T07:01:30;0.93;;;0.93;;
12407;SDS011;6268;48.188;17.134;2023-02-03T07:03:59;1.13;;;1.13;;
12407;SDS011;6268;48.188;17.134;2023-02-03T07:06:29;1.50;;;0.90;;
12407;SDS011;6268;48.188;17.134;2023-02-03T07:09:00;0.90;;;0.90;;
12407;SDS011;6268;48.188;17.134;2023-02-03T07:11:32;1.07;;;1.07;;
12407;SDS011;6268;48.188;17.134;2023-02-03T07:14:01;0.90;;;0.90;;
12407;SDS011;6268;48.188;17.134;2023-02-03T07:16:30;1.40;;;1.30;;
12407;SDS011;6268;48.188;17.134;2023-02-03T07:19:00;1.20;;;1.20;;
12407;SDS011;6268;48.188;17.134;2023-02-03T07:21:28;0.97;;;0.97;;
12407;SDS011;6268;48.188;17.134;2023-02-03T07:23:57;1.00;;;1.00;;
12407;SDS011;6268;48.188;17.134;2023-02-03T07:26:27;1.00;;;1.00;;
12407;SDS011;6268;48.188;17.134;2023-02-03T07:28:58;1.00;;;1.00;;
12407;SDS011;6268;48.188;17.134;2023-02-03T07:31:27;0.60;;;0.60;;
12407;SDS011;6268;48.188;17.134;2023-02-03T07:33:55;1.77;;;1.30;;
12407;SDS011;6268;48.188;17.134;2023-02-03T07:36:26;1.13;;;1.03;;
12407;SDS011;6268;48.188;17.134;2023-02-03T07:38:55;1.70;;;1.60;;
12407;SDS011;6268;48.188;17.134;2023-02-03T07:41:24;4.37;;;3.57;;
12407;SDS011;6268;48.188;17.134;2023-02-03T07:43:53;5.40;;;4.90;;
12407;SDS011;6268;48.188;17.134;2023-02-03T07:46:23;6.13;;;5.37;;
12407;SDS011;6268;48.188;17.134;2023-02-03T07:48:52;6.17;;;5.57;;
12407;SDS011;6268;48.188;17.134;2023-02-03T07:51:21;6.17;;;5.57;;
12407;SDS011;6268;48.188;17.134;2023-02-03T07:53:50;5.80;;;5.20;;
12407;SDS011;6268;48.188;17.134;2023-02-03T07:56:19;8.57;;;6.77;;
12407;SDS011;6268;48.188;17.134;2023-02-03T07:58:51;10.20;;;9.20;;
12407;SDS011;6268;48.188;17.134;2023-02-03T08:01:20;19.80;;;14.73;;
12407;SDS011;6268;48.188;17.134;2023-02-03T08:03:50;4.63;;;4.23;;
12407;SDS011;6268;48.188;17.134;2023-02-03T08:06:20;4.23;;;3.83;;
12407;SDS011;6268;48.188;17.134;2023-02-03T08:08:49;4.70;;;4.30;;
12407;SDS011;6268;48.188;17.134;2023-02-03T08:11:19;4.00;;;3.70;;
12407;SDS011;6268;48.188;17.134;2023-02-03T08:13:48;4.50;;;4.20;;
12407;SDS011;6268;48.188;17.134;2023-02-03T08:16:17;4.83;;;4.53;;
12407;SDS011;6268;48.188;17.134;2023-02-03T08:18:46;3.80;;;3.50;;
12407;SDS011;6268;48.188;17.134;2023-02-03T08:21:17;2.93;;;2.73;;
12407;SDS011;6268;48.188;17.134;2023-02-03T08:23:45;2.50;;;2.40;;
12407;SDS011;6268;48.188;17.134;2023-02-03T08:26:14;2.50;;;2.17;;
12407;SDS011;6268;48.188;17.134;2023-02-03T08:28:46;2.10;;;2.00;;
12407;SDS011;6268;48.188;17.134;2023-02-03T08:31:16;3.10;;;1.63;;
12407;SDS011;6268;48.188;17.134;2023-02-03T08:33:45;1.60;;;1.50;;
12407;SDS011;6268;48.188;17.134;2023-02-03T08:36:14;1.70;;;1.60;;
12407;SDS011;6268;48.188;17.134;2023-02-03T08:38:45;18.03;;;11.50;;
12407;SDS011;6268;48.188;17.134;2023-02-03T08:41:14;26.40;;;16.33;;
12407;SDS011;6268;48.188;17.134;2023-02-03T08:43:45;10.90;;;8.67;;
12407;SDS011;6268;48.188;17.134;2023-02-03T08:46:15;5.50;;;5.00;;
12407;SDS011;6268;48.188;17.134;2023-02-03T08:48:44;3.47;;;3.20;;
12407;SDS011;6268;48.188;17.134;2023-02-03T08:51:13;2.37;;;2.20;;
12407;SDS011;6268;48.188;17.134;2023-02-03T08:53:45;1.90;;;1.80;;
12407;SDS011;6268;48.188;17.134;2023-02-03T08:56:14;2.80;;;2.60;;
12407;SDS011;6268;48.188;17.134;2023-02-03T08:58:43;2.77;;;2.00;;
12407;SDS011;6268;48.188;17.134;2023-02-03T09:01:13;1.77;;;1.67;;
12407;SDS011;6268;48.188;17.134;2023-02-03T09:03:42;2.13;;;1.90;;
12407;SDS011;6268;48.188;17.134;2023-02-03T09:06:11;4.17;;;2.40;;
12407;SDS011;6268;48.188;17.134;2023-02-03T09:08:43;2.10;;;2.00;;
12407;SDS011;6268;48.188;17.134;2023-02-03T09:11:14;1.63;;;1.53;;
12407;SDS011;6268;48.188;17.134;2023-02-03T09:13:45;6.53;;;5.93;;
12407;SDS011;6268;48.188;17.134;2023-02-03T09:16:15;1.93;;;1.83;;
12407;SDS011;6268;48.188;17.134;2023-02-03T09:18:47;1.60;;;1.50;;
12407;SDS011;6268;48.188;17.134;2023-02-03T09:21:17;1.80;;;1.70;;
12407;SDS011;6268;48.188;17.134;2023-02-03T09:24:01;1.67;;;1.57;;
12407;SDS011;6268;48.188;17.134;2023-02-03T09:26:31;1.80;;;1.70;;
12407;SDS011;6268;48.188;17.134;2023-02-03T09:29:00;2.00;;;1.90;;
12407;SDS011;6268;48.188;17.134;2023-02-03T09:31:28;1.63;;;1.53;;
12407;SDS011;6268;48.188;17.134;2023-02-03T09:33:57;1.90;;;1.77;;
12407;SDS011;6268;48.188;17.134;2023-02-03T09:36:26;2.00;;;1.87;;
12407;SDS011;6268;48.188;17.134;2023-02-03T09:38:55;2.60;;;1.83;;
12407;SDS011;6268;48.188;17.134;2023-02-03T09:41:29;2.03;;;1.93;;
12407;SDS011;6268;48.188;17.134;2023-02-03T09:44:19;15.00;;;10.63;;
12407;SDS011;6268;48.188;17.134;2023-02-03T09:46:59;10.17;;;7.77;;
12407;SDS011;6268;48.188;17.134;2023-02-03T09:49:35;5.80;;;5.20;;
12407;SDS011;6268;48.188;17.134;2023-02-03T09:52:08;4.87;;;4.40;;
12407;SDS011;6268;48.188;17.134;2023-02-03T09:54:46;3.17;;;2.70;;
12407;SDS011;6268;48.188;17.134;2023-02-03T09:57:24;2.80;;;2.60;;
12407;SDS011;6268;48.188;17.134;2023-02-03T09:59:57;3.00;;;2.80;;
12407;SDS011;6268;48.188;17.134;2023-02-03T10:02:34;2.30;;;2.20;;
12407;SDS011;6268;48.188;17.134;2023-02-03T10:05:24;2.27;;;2.07;;
12407;SDS011;6268;48.188;17.134;2023-02-03T10:08:06;2.40;;;2.30;;
12407;SDS011;6268;48.188;17.134;2023-02-03T10:10:51;2.10;;;2.00;;
12407;SDS011;6268;48.188;17.134;2023-02-03T10:13:41;3.47;;;3.07;;
12407;SDS011;6268;48.188;17.134;2023-02-03T10:16:21;3.33;;;2.67;;
12407;SDS011;6268;48.188;17.134;2023-02-03T10:19:22;4.33;;;3.50;;
12407;SDS011;6268;48.188;17.134;2023-02-03T10:22:02;6.43;;;3.30;;
12407;SDS011;6268;48.188;17.134;2023-02-03T10:24:35;5.43;;;3.50;;
12407;SDS011;6268;48.188;17.134;2023-02-03T10:27:13;5.57;;;4.60;;
12407;SDS011;6268;48.188;17.134;2023-02-03T10:29:49;6.43;;;5.90;;
12407;SDS011;6268;48.188;17.134;2023-02-03T10:32:26;4.83;;;4.33;;
12407;SDS011;6268;48.188;17.134;2023-02-03T10:34:55;7.83;;;6.90;;
12407;SDS011;6268;48.188;17.134;2023-02-03T10:37:25;8.10;;;7.30;;
12407;SDS011;6268;48.188;17.134;2023-02-03T10:39:58;9.03;;;6.87;;
12407;SDS011;6268;48.188;17.134;2023-02-03T10:42:29;7.63;;;6.40;;
12407;SDS011;6268;48.188;17.134;2023-02-03T10:45:16;12.00;;;8.67;;
12407;SDS011;6268;48.188;17.134;2023-02-03T10:47:47;9.50;;;6.03;;
12407;SDS011;6268;48.188;17.134;2023-02-03T10:50:22;110.60;;;31.80;;
12407;SDS011;6268;48.188;17.134;2023-02-03T10:53:18;61.37;;;22.20;;
12407;SDS011;6268;48.188;17.134;2023-02-03T10:55:51;31.90;;;13.70;;
12407;SDS011;6268;48.188;17.134;2023-02-03T10:58:31;10.13;;;6.80;;
12407;SDS011;6268;48.188;17.134;2023-02-03T11:01:06;4.17;;;2.67;;
12407;SDS011;6268;48.188;17.134;2023-02-03T11:03:40;1.90;;;1.67;;
12407;SDS011;6268;48.188;17.134;2023-02-03T11:06:20;1.10;;;0.93;;
12407;SDS011;6268;48.188;17.134;2023-02-03T11:08:49;1.43;;;1.00;;
12407;SDS011;6268;48.188;17.134;2023-02-03T11:11:19;0.80;;;0.70;;
12407;SDS011;6268;48.188;17.134;2023-02-03T11:13:51;0.70;;;0.70;;
12407;SDS011;6268;48.188;17.134;2023-02-03T11:16:24;1.00;;;0.73;;
12407;SDS011;6268;48.188;17.134;2023-02-03T11:18:54;0.90;;;0.90;;
12407;SDS011;6268;48.188;17.134;2023-02-03T11:21:27;2.50;;;2.30;;
12407;SDS011;6268;48.188;17.134;2023-02-03T11:24:00;2.10;;;1.40;;
12407;SDS011;6268;48.188;17.134;2023-02-03T11:26:36;1.13;;;1.10;;
12407;SDS011;6268;48.188;17.134;2023-02-03T11:29:14;1.47;;;1.37;;
12407;SDS011;6268;48.188;17.134;2023-02-03T11:31:51;1.37;;;1.00;;
12407;SDS011;6268;48.188;17.134;2023-02-03T11:34:23;0.73;;;0.70;;
12407;SDS011;6268;48.188;17.134;2023-02-03T11:36:57;0.73;;;0.60;;
12407;SDS011;6268;48.188;17.134;2023-02-03T11:39:54;0.70;;;0.70;;
12407;SDS011;6268;48.188;17.134;2023-02-03T11:42:23;1.23;;;0.57;;
12407;SDS011;6268;48.188;17.134;2023-02-03T11:44:58;0.60;;;0.60;;
12407;SDS011;6268;48.188;17.134;2023-02-03T11:47:44;1.73;;;1.10;;
12407;SDS011;6268;48.188;17.134;2023-02-03T11:50:19;2.70;;;2.20;;
12407;SDS011;6268;48.188;17.134;2023-02-03T11:53:06;2.60;;;2.40;;
12407;SDS011;6268;48.188;17.134;2023-02-03T11:55:56;3.27;;;3.03;;
12407;SDS011;6268;48.188;17.134;2023-02-03T11:58:49;1.40;;;1.20;;
12407;SDS011;6268;48.188;17.134;2023-02-03T12:01:59;1.05;;;0.80;;
12407;SDS011;6268;48.188;17.134;2023-02-03T12:05:05;1.00;;;0.90;;
12407;SDS011;6268;48.188;17.134;2023-02-03T12:08:02;1.83;;;1.05;;
12407;SDS011;6268;48.188;17.134;2023-02-03T12:10:51;0.50;;;0.50;;
12407;SDS011;6268;48.188;17.134;2023-02-03T12:13:45;0.70;;;0.70;;
12407;SDS011;6268;48.188;17.134;2023-02-03T12:16:50;2.17;;;2.08;;
12407;SDS011;6268;48.188;17.134;2023-02-03T12:19:54;4.67;;;3.07;;
12407;SDS011;6268;48.188;17.134;2023-02-03T12:22:45;0.93;;;0.90;;
12407;SDS011;6268;48.188;17.134;2023-02-03T12:25:32;3.30;;;3.00;;
12407;SDS011;6268;48.188;17.134;2023-02-03T12:28:16;0.60;;;0.60;;
12407;SDS011;6268;48.188;17.134;2023-02-03T12:31:10;3.63;;;1.30;;
12407;SDS011;6268;48.188;17.134;2023-02-03T12:33:53;3.70;;;3.35;;
12407;SDS011;6268;48.188;17.134;2023-02-03T12:36:39;1.73;;;0.95;;
12407;SDS011;6268;48.188;17.134;2023-02-03T12:39:16;3.25;;;2.95;;
12407;SDS011;6268;48.188;17.134;2023-02-03T12:41:51;1.60;;;1.50;;
12407;SDS011;6268;48.188;17.134;2023-02-03T12:44:29;1.45;;;0.90;;
12407;SDS011;6268;48.188;17.134;2023-02-03T12:47:10;1.35;;;1.23;;
12407;SDS011;6268;48.188;17.134;2023-02-03T12:49:49;1.40;;;1.30;;
12407;SDS011;6268;48.188;17.134;2023-02-03T12:52:25;4.05;;;1.20;;
12407;SDS011;6268;48.188;17.134;2023-02-03T12:55:05;1.10;;;1.02;;
12407;SDS011;6268;48.188;17.134;2023-02-03T12:57:48;1.83;;;0.67;;
12407;SDS011;6268;48.188;17.134;2023-02-03T13:00:37;8.70;;;7.55;;
12407;SDS011;6268;48.188;17.134;2023-02-03T13:03:15;3.00;;;2.50;;
12407;SDS011;6268;48.188;17.134;2023-02-03T13:05:55;3.63;;;1.60;;
12407;SDS011;6268;48.188;17.134;2023-02-03T13:08:37;0.90;;;0.90;;
12407;SDS011;6268;48.188;17.134;2023-02-03T13:11:14;0.63;;;0.60;;
12407;SDS011;6268;48.188;17.134;2023-02-03T13:13:51;3.03;;;1.63;;
12407;SDS011;6268;48.188;17.134;2023-02-03T13:16:24;0.80;;;0.80;;
12407;SDS011;6268;48.188;17.134;2023-02-03T13:19:01;1.73;;;1.40;;
12407;SDS011;6268;48.188;17.134;2023-02-03T13:21:36;0.73;;;0.63;;
12407;SDS011;6268;48.188;17.134;2023-02-03T13:24:08;0.60;;;0.60;;
12407;SDS011;6268;48.188;17.134;2023-02-03T13:26:54;1.53;;;1.00;;
12407;SDS011;6268;48.188;17.134;2023-02-03T13:29:44;1.20;;;1.10;;
12407;SDS011;6268;48.188;17.134;2023-02-03T13:32:41;2.20;;;2.00;;
12407;SDS011;6268;48.188;17.134;2023-02-03T13:35:37;1.15;;;1.05;;
12407;SDS011;6268;48.188;17.134;2023-02-03T13:38:36;1.50;;;0.60;;
12407;SDS011;6268;48.188;17.134;2023-02-03T13:41:28;0.75;;;0.75;;
12407;SDS011;6268;48.188;17.134;2023-02-03T13:44:09;1.55;;;0.88;;
12407;SDS011;6268;48.188;17.134;2023-02-03T13:46:45;3.30;;;1.98;;
12407;SDS011;6268;48.188;17.134;2023-02-03T13:49:19;1.20;;;1.00;;
12407;SDS011;6268;48.188;17.134;2023-02-03T13:51:54;0.97;;;0.90;;
12407;SDS011;6268;48.188;17.134;2023-02-03T13:54:25;0.75;;;0.75;;
12407;SDS011;6268;48.188;17.134;2023-02-03T13:57:05;1.57;;;0.77;;
12407;SDS011;6268;48.188;17.134;2023-02-03T13:59:49;1.08;;;0.63;;
12407;SDS011;6268;48.188;17.134;2023-02-03T14:05:40;1.10;;;1.00;;
12407;SDS011;6268;48.188;17.134;2023-02-03T14:11:38;4.68;;;2.78;;
12407;SDS011;6268;48.188;17.134;2023-02-03T14:20:36;1.00;;;1.00;;
12407;SDS011;6268;48.188;17.134;2023-02-03T14:23:10;1.08;;;0.73;;
12407;SDS011;6268;48.188;17.134;2023-02-03T14:25:47;0.93;;;0.80;;
12407;SDS011;6268;48.188;17.134;2023-02-03T14:28:21;0.80;;;0.80;;
12407;SDS011;6268;48.188;17.134;2023-02-03T14:31:04;1.10;;;0.87;;
12407;SDS011;6268;48.188;17.134;2023-02-03T14:33:45;1.87;;;1.00;;
12407;SDS011;6268;48.188;17.134;2023-02-03T14:36:27;3.13;;;1.20;;
12407;SDS011;6268;48.188;17.134;2023-02-03T14:42:46;1.30;;;0.80;;
12407;SDS011;6268;48.188;17.134;2023-02-03T14:49:23;0.90;;;0.90;;
12407;SDS011;6268;48.188;17.134;2023-02-03T14:52:14;1.37;;;1.13;;
12407;SDS011;6268;48.188;17.134;2023-02-03T14:55:18;1.03;;;0.93;;
12407;SDS011;6268;48.188;17.134;2023-02-03T14:58:05;1.93;;;1.03;;
12407;SDS011;6268;48.188;17.134;2023-02-03T15:00:50;2.00;;;1.50;;
12407;SDS011;6268;48.188;17.134;2023-02-03T15:03:30;1.23;;;1.13;;
12407;SDS011;6268;48.188;17.134;2023-02-03T15:06:01;1.20;;;1.10;;
12407;SDS011;6268;48.188;17.134;2023-02-03T15:08:36;0.80;;;0.80;;
12407;SDS011;6268;48.188;17.134;2023-02-03T15:11:23;1.03;;;1.03;;
12407;SDS011;6268;48.188;17.134;2023-02-03T15:14:16;1.77;;;1.20;;
12407;SDS011;6268;48.188;17.134;2023-02-03T15:16:55;1.03;;;1.00;;
12407;SDS011;6268;48.188;17.134;2023-02-03T15:19:31;1.67;;;1.20;;
12407;SDS011;6268;48.188;17.134;2023-02-03T15:22:16;0.80;;;0.80;;
12407;SDS011;6268;48.188;17.134;2023-02-03T15:24:50;1.85;;;1.42;;
12407;SDS011;6268;48.188;17.134;2023-02-03T15:27:23;1.27;;;1.10;;
12407;SDS011;6268;48.188;17.134;2023-02-03T15:29:54;0.90;;;0.90;;
12407;SDS011;6268;48.188;17.134;2023-02-03T15:32:25;0.93;;;0.93;;
12407;SDS011;6268;48.188;17.134;2023-02-03T15:35:02;1.10;;;1.00;;
12407;SDS011;6268;48.188;17.134;2023-02-03T15:37:39;5.32;;;4.60;;
12407;SDS011;6268;48.188;17.134;2023-02-03T15:40:12;1.48;;;1.38;;
12407;SDS011;6268;48.188;17.134;2023-02-03T15:42:48;1.93;;;1.67;;
12407;SDS011;6268;48.188;17.134;2023-02-03T15:45:25;0.70;;;0.70;;
12407;SDS011;6268;48.188;17.134;2023-02-03T15:48:04;1.02;;;0.95;;
12407;SDS011;6268;48.188;17.134;2023-02-03T15:50:44;2.77;;;1.47;;
12407;SDS011;6268;48.188;17.134;2023-02-03T15:53:21;0.97;;;0.97;;
12407;SDS011;6268;48.188;17.134;2023-02-03T15:56:14;1.15;;;1.13;;